sensor_id;sensor_type;location;lat;lon;timestamp;pressure;altitude;pressure_sealevel;temperature;humidity
48824;BME280;34640;53.590;10.054;2022-10-16T00:01:55;100464.34;;;14.62;100.00
48824;BME280;34640;53.590;10.054;2022-10-16T00:04:29;100466.00;;;14.60;100.00
48824;BME280;34640;53.590;10.054;2022-10-16T00:07:02;100468.63;;;14.60;100.00
48824;BME280;34640;53.590;10.054;2022-10-16T00:09:36;100481.69;;;14.59;100.00
48824;BME280;34640;53.590;10.054;2022-10-16T00:12:10;100464.28;;;14.61;100.00
48824;BME280;34640;53.590;10.054;2022-10-16T00:14:44;100468.69;;;14.62;100.00
48824;BME280;34640;53.590;10.054;2022-10-16T00:17:19;100482.56;;;14.59;100.00
48824;BME280;34640;53.590;10.054;2022-10-16T00:19:52;100473.88;;;14.60;100.00
48824;BME280;34640;53.590;10.054;2022-10-16T00:22:26;100474.09;;;14.66;100.00
48824;BME280;34640;53.590;10.054;2022-10-16T00:25:00;100473.44;;;14.72;100.00
48824;BME280;34640;53.590;10.054;2022-10-16T00:27:34;100475.03;;;14.68;100.00
48824;BME280;34640;53.590;10.054;2022-10-16T00:30:09;100473.38;;;14.71;100.00
48824;BME280;34640;53.590;10.054;2022-10-16T00:32:44;100484.63;;;14.68;100.00
48824;BME280;34640;53.590;10.054;2022-10-16T00:35:17;100483.84;;;14.71;100.00
48824;BME280;34640;53.590;10.054;2022-10-16T00:37:51;100483.13;;;14.75;100.00
48824;BME280;34640;53.590;10.054;2022-10-16T00:40:25;100487.56;;;14.76;100.00
48824;BME280;34640;53.590;10.054;2022-10-16T00:43:00;100490.47;;;14.83;100.00
48824;BME280;34640;53.590;10.054;2022-10-16T00:45:34;100483.56;;;14.85;100.00
48824;BME280;34640;53.590;10.054;2022-10-16T00:48:13;100494.03;;;14.85;100.00
48824;BME280;34640;53.590;10.054;2022-10-16T00:50:47;100497.44;;;14.83;100.00
48824;BME280;34640;53.590;10.054;2022-10-16T00:53:21;100497.63;;;14.87;100.00
48824;BME280;34640;53.590;10.054;2022-10-16T00:55:55;100495.00;;;14.87;100.00
48824;BME280;34640;53.590;10.054;2022-10-16T00:58:29;100491.59;;;14.90;100.00
48824;BME280;34640;53.590;10.054;2022-10-16T01:01:03;100494.16;;;14.88;100.00
48824;BME280;34640;53.590;10.054;2022-10-16T01:03:38;100501.91;;;14.85;100.00
48824;BME280;34640;53.590;10.054;2022-10-16T01:06:20;100492.09;;;14.80;100.00
48824;BME280;34640;53.590;10.054;2022-10-16T01:09:11;100500.00;;;14.81;100.00
48824;BME280;34640;53.590;10.054;2022-10-16T01:11:55;100511.28;;;14.79;100.00
48824;BME280;34640;53.590;10.054;2022-10-16T01:14:39;100514.19;;;14.86;100.00
48824;BME280;34640;53.590;10.054;2022-10-16T01:17:17;100512.41;;;14.85;100.00
48824;BME280;34640;53.590;10.054;2022-10-16T01:20:05;100521.88;;;14.82;100.00
48824;BME280;34640;53.590;10.054;2022-10-16T01:22:51;100512.13;;;14.78;100.00
48824;BME280;34640;53.590;10.054;2022-10-16T01:25:46;100523.50;;;14.78;100.00
48824;BME280;34640;53.590;10.054;2022-10-16T01:28:28;100522.59;;;14.78;100.00
48824;BME280;34640;53.590;10.054;2022-10-16T01:31:06;100520.66;;;14.74;100.00
48824;BME280;34640;53.590;10.054;2022-10-16T01:33:43;100522.34;;;14.72;100.00
48824;BME280;34640;53.590;10.054;2022-10-16T01:36:23;100523.19;;;14.71;100.00
48824;BME280;34640;53.590;10.054;2022-10-16T01:39:01;100533.25;;;14.60;100.00
48824;BME280;34640;53.590;10.054;2022-10-16T01:41:37;100526.06;;;14.54;100.00
48824;BME280;34640;53.590;10.054;2022-10-16T01:44:17;100515.47;;;14.53;100.00
48824;BME280;34640;53.590;10.054;2022-10-16T01:46:53;100524.25;;;14.53;100.00
48824;BME280;34640;53.590;10.054;2022-10-16T01:49:31;100523.28;;;14.51;100.00
48824;BME280;34640;53.590;10.054;2022-10-16T01:52:08;100523.16;;;14.48;100.00
48824;BME280;34640;53.590;10.054;2022-10-16T01:54:46;100516.03;;;14.44;100.00
48824;BME280;34640;53.590;10.054;2022-10-16T01:57:23;100514.97;;;14.41;100.00
48824;BME280;34640;53.590;10.054;2022-10-16T02:00:03;100525.34;;;14.37;100.00
48824;BME280;34640;53.590;10.054;2022-10-16T02:02:39;100523.38;;;14.32;100.00
48824;BME280;34640;53.590;10.054;2022-10-16T02:05:17;100528.59;;;14.32;100.00
48824;BME280;34640;53.590;10.054;2022-10-16T02:07:53;100520.81;;;14.33;100.00
48824;BME280;34640;53.590;10.054;2022-10-16T02:10:42;100526.88;;;14.32;100.00
48824;BME280;34640;53.590;10.054;2022-10-16T02:13:34;100525.88;;;14.30;100.00
48824;BME280;34640;53.590;10.054;2022-10-16T02:16:13;100526.72;;;14.29;100.00
48824;BME280;34640;53.590;10.054;2022-10-16T02:18:46;100521.44;;;14.28;100.00
48824;BME280;34640;53.590;10.054;2022-10-16T02:21:24;100527.50;;;14.27;100.00
48824;BME280;34640;53.590;10.054;2022-10-16T02:24:03;100527.31;;;14.22;100.00
48824;BME280;34640;53.590;10.054;2022-10-16T02:26:45;100531.66;;;14.22;100.00
48824;BME280;34640;53.590;10.054;2022-10-16T02:29:24;100536.78;;;14.19;100.00
48824;BME280;34640;53.590;10.054;2022-10-16T02:32:02;100534.16;;;14.19;100.00
48824;BME280;34640;53.590;10.054;2022-10-16T02:34:38;100533.03;;;14.12;100.00
48824;BME280;34640;53.590;10.054;2022-10-16T02:37:14;100534.75;;;14.12;100.00
48824;BME280;34640;53.590;10.054;2022-10-16T02:39:48;100532.81;;;14.07;100.00
48824;BME280;34640;53.590;10.054;2022-10-16T02:42:28;100534.97;;;13.97;100.00
48824;BME280;34640;53.590;10.054;2022-10-16T02:45:02;100527.06;;;13.95;100.00
48824;BME280;34640;53.590;10.054;2022-10-16T02:47:37;100527.56;;;13.87;100.00
48824;BME280;34640;53.590;10.054;2022-10-16T02:50:11;100532.66;;;13.84;100.00
48824;BME280;34640;53.590;10.054;2022-10-16T02:52:45;100528.78;;;13.74;100.00
48824;BME280;34640;53.590;10.054;2022-10-16T02:55:19;100537.31;;;13.70;100.00
48824;BME280;34640;53.590;10.054;2022-10-16T02:57:53;100538.09;;;13.67;100.00
48824;BME280;34640;53.590;10.054;2022-10-16T03:00:26;100538.00;;;13.66;100.00
48824;BME280;34640;53.590;10.054;2022-10-16T03:03:02;100536.31;;;13.66;100.00
48824;BME280;34640;53.590;10.054;2022-10-16T03:05:36;100533.59;;;13.65;100.00
48824;BME280;34640;53.590;10.054;2022-10-16T03:08:09;100533.53;;;13.63;100.00
48824;BME280;34640;53.590;10.054;2022-10-16T03:10:43;100542.00;;;13.58;100.00
48824;BME280;34640;53.590;10.054;2022-10-16T03:13:17;100530.31;;;13.50;100.00
48824;BME280;34640;53.590;10.054;2022-10-16T03:15:52;100524.97;;;13.47;100.00
48824;BME280;34640;53.590;10.054;2022-10-16T03:18:27;100514.97;;;13.38;100.00
48824;BME280;34640;53.590;10.054;2022-10-16T03:21:01;100521.59;;;13.30;100.00
48824;BME280;34640;53.590;10.054;2022-10-16T03:23:35;100516.97;;;13.24;100.00
48824;BME280;34640;53.590;10.054;2022-10-16T03:26:09;100524.59;;;13.20;100.00
48824;BME280;34640;53.590;10.054;2022-10-16T03:28:43;100536.78;;;13.19;100.00
48824;BME280;34640;53.590;10.054;2022-10-16T03:31:16;100523.63;;;13.18;100.00
48824;BME280;34640;53.590;10.054;2022-10-16T03:33:52;100531.53;;;13.19;100.00
48824;BME280;34640;53.590;10.054;2022-10-16T03:36:25;100530.56;;;13.17;100.00
48824;BME280;34640;53.590;10.054;2022-10-16T03:38:59;100531.25;;;13.13;100.00
48824;BME280;34640;53.590;10.054;2022-10-16T03:41:33;100537.16;;;13.09;100.00
48824;BME280;34640;53.590;10.054;2022-10-16T03:44:07;100531.72;;;13.04;100.00
48824;BME280;34640;53.590;10.054;2022-10-16T03:46:40;100538.63;;;13.02;100.00
48824;BME280;34640;53.590;10.054;2022-10-16T03:49:16;100538.69;;;13.04;100.00
48824;BME280;34640;53.590;10.054;2022-10-16T03:51:49;100544.81;;;13.04;100.00
48824;BME280;34640;53.590;10.054;2022-10-16T03:54:23;100544.88;;;13.06;100.00
48824;BME280;34640;53.590;10.054;2022-10-16T03:56:56;100537.78;;;13.03;100.00
48824;BME280;34640;53.590;10.054;2022-10-16T03:59:30;100539.34;;;13.00;100.00
48824;BME280;34640;53.590;10.054;2022-10-16T04:02:04;100542.78;;;12.99;100.00
48824;BME280;34640;53.590;10.054;2022-10-16T04:04:39;100540.34;;;13.02;100.00
48824;BME280;34640;53.590;10.054;2022-10-16T04:07:13;100544.56;;;13.00;100.00
48824;BME280;34640;53.590;10.054;2022-10-16T04:09:46;100552.56;;;13.03;100.00
48824;BME280;34640;53.590;10.054;2022-10-16T04:12:20;100564.66;;;13.01;100.00
48824;BME280;34640;53.590;10.054;2022-10-16T04:14:54;100571.69;;;13.02;100.00
48824;BME280;34640;53.590;10.054;2022-10-16T04:17:27;100569.88;;;13.01;100.00
48824;BME280;34640;53.590;10.054;2022-10-16T04:20:03;100576.03;;;13.01;100.00
48824;BME280;34640;53.590;10.054;2022-10-16T04:22:37;100578.78;;;13.04;100.00
48824;BME280;34640;53.590;10.054;2022-10-16T04:25:11;100577.91;;;13.04;100.00
48824;BME280;34640;53.590;10.054;2022-10-16T04:27:45;100580.66;;;13.07;100.00
48824;BME280;34640;53.590;10.054;2022-10-16T04:30:19;100586.00;;;13.10;100.00
48824;BME280;34640;53.590;10.054;2022-10-16T04:32:53;100591.94;;;13.06;100.00
48824;BME280;34640;53.590;10.054;2022-10-16T04:35:28;100574.38;;;13.03;100.00
48824;BME280;34640;53.590;10.054;2022-10-16T04:38:02;100581.09;;;12.98;100.00
48824;BME280;34640;53.590;10.054;2022-10-16T04:40:36;100579.03;;;12.91;100.00
48824;BME280;34640;53.590;10.054;2022-10-16T04:43:09;100590.31;;;12.90;100.00
48824;BME280;34640;53.590;10.054;2022-10-16T04:45:43;100600.75;;;12.90;100.00
48824;BME280;34640;53.590;10.054;2022-10-16T04:48:17;100598.06;;;12.89;100.00
48824;BME280;34640;53.590;10.054;2022-10-16T04:50:52;100603.97;;;12.84;100.00
48824;BME280;34640;53.590;10.054;2022-10-16T04:53:26;100596.81;;;12.80;100.00
48824;BME280;34640;53.590;10.054;2022-10-16T04:56:00;100604.47;;;12.77;100.00
48824;BME280;34640;53.590;10.054;2022-10-16T04:58:35;100596.81;;;12.80;100.00
48824;BME280;34640;53.590;10.054;2022-10-16T05:01:09;100597.78;;;12.82;100.00
48824;BME280;34640;53.590;10.054;2022-10-16T05:03:42;100590.09;;;12.85;100.00
48824;BME280;34640;53.590;10.054;2022-10-16T05:06:17;100603.28;;;12.89;100.00
48824;BME280;34640;53.590;10.054;2022-10-16T05:08:51;100605.84;;;12.87;100.00
48824;BME280;34640;53.590;10.054;2022-10-16T05:11:25;100608.59;;;12.90;100.00
48824;BME280;34640;53.590;10.054;2022-10-16T05:13:59;100614.72;;;12.91;100.00
48824;BME280;34640;53.590;10.054;2022-10-16T05:16:33;100621.72;;;12.92;100.00
48824;BME280;34640;53.590;10.054;2022-10-16T05:19:06;100627.72;;;12.89;100.00
48824;BME280;34640;53.590;10.054;2022-10-16T05:22:00;100628.47;;;12.87;100.00
48824;BME280;34640;53.590;10.054;2022-10-16T05:24:34;100627.50;;;12.84;100.00
48824;BME280;34640;53.590;10.054;2022-10-16T05:27:08;100626.53;;;12.82;100.00
48824;BME280;34640;53.590;10.054;2022-10-16T05:29:41;100632.50;;;12.80;100.00
48824;BME280;34640;53.590;10.054;2022-10-16T05:32:16;100630.78;;;12.80;100.00
48824;BME280;34640;53.590;10.054;2022-10-16T05:34:50;100634.13;;;12.78;100.00
48824;BME280;34640;53.590;10.054;2022-10-16T05:37:26;100639.34;;;12.78;100.00
48824;BME280;34640;53.590;10.054;2022-10-16T05:40:01;100635.28;;;12.83;100.00
48824;BME280;34640;53.590;10.054;2022-10-16T05:42:37;100638.09;;;12.88;100.00
48824;BME280;34640;53.590;10.054;2022-10-16T05:45:11;100633.84;;;12.90;100.00
48824;BME280;34640;53.590;10.054;2022-10-16T05:47:45;100634.06;;;12.94;100.00
48824;BME280;34640;53.590;10.054;2022-10-16T05:50:19;100633.91;;;12.91;100.00
48824;BME280;34640;53.590;10.054;2022-10-16T05:52:54;100622.41;;;12.88;100.00
48824;BME280;34640;53.590;10.054;2022-10-16T05:55:28;100623.25;;;12.87;100.00
48824;BME280;34640;53.590;10.054;2022-10-16T05:58:01;100632.72;;;12.84;100.00
48824;BME280;34640;53.590;10.054;2022-10-16T06:00:35;100637.19;;;12.87;100.00
48824;BME280;34640;53.590;10.054;2022-10-16T06:03:09;100648.63;;;12.89;100.00
48824;BME280;34640;53.590;10.054;2022-10-16T06:05:42;100653.16;;;12.93;100.00
48824;BME280;34640;53.590;10.054;2022-10-16T06:08:18;100647.19;;;12.96;100.00
48824;BME280;34640;53.590;10.054;2022-10-16T06:11:00;100645.69;;;13.01;100.00
48824;BME280;34640;53.590;10.054;2022-10-16T06:13:34;100656.31;;;13.04;100.00
48824;BME280;34640;53.590;10.054;2022-10-16T06:16:09;100648.53;;;13.05;100.00
48824;BME280;34640;53.590;10.054;2022-10-16T06:18:43;100656.59;;;13.10;100.00
48824;BME280;34640;53.590;10.054;2022-10-16T06:21:18;100650.41;;;13.08;100.00
48824;BME280;34640;53.590;10.054;2022-10-16T06:23:54;100649.22;;;13.01;100.00
48824;BME280;34640;53.590;10.054;2022-10-16T06:26:30;100656.00;;;12.98;100.00
48824;BME280;34640;53.590;10.054;2022-10-16T06:29:04;100658.41;;;12.93;100.00
48824;BME280;34640;53.590;10.054;2022-10-16T06:31:38;100659.44;;;12.97;100.00
48824;BME280;34640;53.590;10.054;2022-10-16T06:34:11;100662.94;;;12.97;100.00
48824;BME280;34640;53.590;10.054;2022-10-16T06:36:45;100660.13;;;12.93;100.00
48824;BME280;34640;53.590;10.054;2022-10-16T06:39:20;100667.00;;;12.91;100.00
48824;BME280;34640;53.590;10.054;2022-10-16T06:41:54;100676.56;;;12.90;100.00
48824;BME280;34640;53.590;10.054;2022-10-16T06:44:28;100675.19;;;12.98;100.00
48824;BME280;34640;53.590;10.054;2022-10-16T06:47:01;100668.16;;;13.15;100.00
48824;BME280;34640;53.590;10.054;2022-10-16T06:49:35;100669.13;;;13.17;100.00
48824;BME280;34640;53.590;10.054;2022-10-16T06:52:09;100676.84;;;13.14;100.00
48824;BME280;34640;53.590;10.054;2022-10-16T06:54:44;100694.31;;;13.15;100.00
48824;BME280;34640;53.590;10.054;2022-10-16T06:57:18;100690.97;;;13.18;100.00
48824;BME280;34640;53.590;10.054;2022-10-16T06:59:52;100699.16;;;13.24;100.00
48824;BME280;34640;53.590;10.054;2022-10-16T07:02:26;100703.69;;;13.28;100.00
48824;BME280;34640;53.590;10.054;2022-10-16T07:05:01;100697.03;;;13.34;100.00
48824;BME280;34640;53.590;10.054;2022-10-16T07:07:35;100706.19;;;13.44;100.00
48824;BME280;34640;53.590;10.054;2022-10-16T07:10:10;100706.84;;;13.58;100.00
48824;BME280;34640;53.590;10.054;2022-10-16T07:12:43;100717.22;;;13.74;100.00
48824;BME280;34640;53.590;10.054;2022-10-16T07:15:17;100716.78;;;13.84;100.00
48824;BME280;34640;53.590;10.054;2022-10-16T07:17:51;100717.56;;;14.01;100.00
48824;BME280;34640;53.590;10.054;2022-10-16T07:20:25;100724.53;;;14.20;100.00
48824;BME280;34640;53.590;10.054;2022-10-16T07:22:58;100718.13;;;14.32;100.00
48824;BME280;34640;53.590;10.054;2022-10-16T07:25:33;100730.66;;;14.40;100.00
48824;BME280;34640;53.590;10.054;2022-10-16T07:28:07;100733.97;;;14.35;100.00
48824;BME280;34640;53.590;10.054;2022-10-16T07:30:42;100739.41;;;14.40;100.00
48824;BME280;34640;53.590;10.054;2022-10-16T07:33:16;100739.19;;;14.35;100.00
48824;BME280;34640;53.590;10.054;2022-10-16T07:35:51;100739.06;;;14.32;100.00
48824;BME280;34640;53.590;10.054;2022-10-16T07:38:25;100741.75;;;14.34;100.00
48824;BME280;34640;53.590;10.054;2022-10-16T07:41:01;100755.06;;;14.38;100.00
48824;BME280;34640;53.590;10.054;2022-10-16T07:43:35;100747.50;;;14.45;100.00
48824;BME280;34640;53.590;10.054;2022-10-16T07:46:08;100761.63;;;14.48;100.00
48824;BME280;34640;53.590;10.054;2022-10-16T07:48:43;100762.56;;;14.50;100.00
48824;BME280;34640;53.590;10.054;2022-10-16T07:51:21;100759.84;;;14.68;100.00
48824;BME280;34640;53.590;10.054;2022-10-16T07:53:55;100768.00;;;14.95;100.00
48824;BME280;34640;53.590;10.054;2022-10-16T07:56:31;100768.94;;;15.18;100.00
48824;BME280;34640;53.590;10.054;2022-10-16T07:59:05;100767.50;;;15.24;100.00
48824;BME280;34640;53.590;10.054;2022-10-16T08:01:39;100775.50;;;15.27;100.00
48824;BME280;34640;53.590;10.054;2022-10-16T08:04:14;100767.03;;;15.14;100.00
48824;BME280;34640;53.590;10.054;2022-10-16T08:06:48;100775.63;;;15.10;100.00
48824;BME280;34640;53.590;10.054;2022-10-16T08:09:22;100775.56;;;15.08;100.00
48824;BME280;34640;53.590;10.054;2022-10-16T08:11:57;100785.16;;;15.08;100.00
48824;BME280;34640;53.590;10.054;2022-10-16T08:14:33;100791.53;;;15.14;100.00
48824;BME280;34640;53.590;10.054;2022-10-16T08:17:08;100789.88;;;15.16;100.00
48824;BME280;34640;53.590;10.054;2022-10-16T08:19:44;100796.78;;;15.14;100.00
48824;BME280;34640;53.590;10.054;2022-10-16T08:22:18;100791.88;;;15.22;100.00
48824;BME280;34640;53.590;10.054;2022-10-16T08:24:52;100789.63;;;15.31;100.00
48824;BME280;34640;53.590;10.054;2022-10-16T08:27:32;100789.81;;;15.36;100.00
48824;BME280;34640;53.590;10.054;2022-10-16T08:30:07;100790.81;;;15.39;100.00
48824;BME280;34640;53.590;10.054;2022-10-16T08:32:41;100798.25;;;15.49;100.00
48824;BME280;34640;53.590;10.054;2022-10-16T08:35:15;100795.19;;;15.59;100.00
48824;BME280;34640;53.590;10.054;2022-10-16T08:37:49;100784.78;;;15.83;100.00
48824;BME280;34640;53.590;10.054;2022-10-16T08:40:24;100790.72;;;16.02;100.00
48824;BME280;34640;53.590;10.054;2022-10-16T08:43:19;100801.38;;;16.29;100.00
48824;BME280;34640;53.590;10.054;2022-10-16T08:46:08;100788.56;;;16.14;100.00
48824;BME280;34640;53.590;10.054;2022-10-16T08:48:49;100790.81;;;16.05;100.00
48824;BME280;34640;53.590;10.054;2022-10-16T08:51:25;100790.41;;;16.16;100.00
48824;BME280;34640;53.590;10.054;2022-10-16T08:54:03;100800.25;;;16.22;100.00
48824;BME280;34640;53.590;10.054;2022-10-16T08:56:37;100801.69;;;16.14;100.00
48824;BME280;34640;53.590;10.054;2022-10-16T08:59:13;100812.78;;;16.29;100.00
48824;BME280;34640;53.590;10.054;2022-10-16T09:01:50;100808.31;;;16.27;100.00
48824;BME280;34640;53.590;10.054;2022-10-16T09:04:43;100815.59;;;16.34;100.00
48824;BME280;34640;53.590;10.054;2022-10-16T09:07:30;100824.38;;;16.34;100.00
48824;BME280;34640;53.590;10.054;2022-10-16T09:10:17;100828.63;;;16.31;100.00
48824;BME280;34640;53.590;10.054;2022-10-16T09:12:57;100833.19;;;16.36;100.00
48824;BME280;34640;53.590;10.054;2022-10-16T09:15:39;100832.53;;;16.42;100.00
48824;BME280;34640;53.590;10.054;2022-10-16T09:18:22;100831.84;;;16.47;100.00
48824;BME280;34640;53.590;10.054;2022-10-16T09:21:10;100825.47;;;16.41;100.00
48824;BME280;34640;53.590;10.054;2022-10-16T09:23:47;100832.38;;;16.61;100.00
48824;BME280;34640;53.590;10.054;2022-10-16T09:26:21;100838.34;;;16.79;100.00
48824;BME280;34640;53.590;10.054;2022-10-16T09:29:00;100848.50;;;16.94;100.00
48824;BME280;34640;53.590;10.054;2022-10-16T09:31:36;100849.03;;;17.09;100.00
48824;BME280;34640;53.590;10.054;2022-10-16T09:34:20;100852.38;;;17.31;99.72
48824;BME280;34640;53.590;10.054;2022-10-16T09:37:05;100854.28;;;17.35;98.94
48824;BME280;34640;53.590;10.054;2022-10-16T09:39:48;100855.88;;;17.30;98.17
48824;BME280;34640;53.590;10.054;2022-10-16T09:42:25;100851.66;;;17.35;98.25
48824;BME280;34640;53.590;10.054;2022-10-16T09:45:00;100856.72;;;17.29;98.11
48824;BME280;34640;53.590;10.054;2022-10-16T09:47:39;100842.50;;;17.24;97.44
48824;BME280;34640;53.590;10.054;2022-10-16T09:50:22;100851.84;;;17.14;98.35
48824;BME280;34640;53.590;10.054;2022-10-16T09:53:11;100846.72;;;17.19;98.81
48824;BME280;34640;53.590;10.054;2022-10-16T09:55:55;100859.09;;;17.21;96.56
48824;BME280;34640;53.590;10.054;2022-10-16T09:58:31;100862.03;;;17.30;95.63
48824;BME280;34640;53.590;10.054;2022-10-16T10:01:13;100875.94;;;17.26;95.12
48824;BME280;34640;53.590;10.054;2022-10-16T10:03:49;100881.09;;;17.23;95.65
48824;BME280;34640;53.590;10.054;2022-10-16T10:06:29;100887.69;;;17.36;95.47
48824;BME280;34640;53.590;10.054;2022-10-16T10:09:06;100883.63;;;17.46;95.40
48824;BME280;34640;53.590;10.054;2022-10-16T10:11:53;100883.88;;;17.53;95.29
48824;BME280;34640;53.590;10.054;2022-10-16T10:14:30;100897.63;;;17.45;95.90
48824;BME280;34640;53.590;10.054;2022-10-16T10:17:14;100886.91;;;17.38;96.37
48824;BME280;34640;53.590;10.054;2022-10-16T10:19:52;100889.16;;;17.28;95.98
48824;BME280;34640;53.590;10.054;2022-10-16T10:22:38;100901.00;;;17.15;96.77
48824;BME280;34640;53.590;10.054;2022-10-16T10:25:18;100902.19;;;17.25;96.62
48824;BME280;34640;53.590;10.054;2022-10-16T10:28:15;100899.63;;;17.26;96.23
48824;BME280;34640;53.590;10.054;2022-10-16T10:30:57;100895.75;;;17.40;95.97
48824;BME280;34640;53.590;10.054;2022-10-16T10:33:40;100895.69;;;17.39;95.53
48824;BME280;34640;53.590;10.054;2022-10-16T10:36:28;100896.84;;;17.47;95.25
48824;BME280;34640;53.590;10.054;2022-10-16T10:39:06;100902.84;;;17.68;94.87
48824;BME280;34640;53.590;10.054;2022-10-16T10:42:05;100907.47;;;17.76;93.41
48824;BME280;34640;53.590;10.054;2022-10-16T10:47:45;100907.22;;;17.95;91.90
48824;BME280;34640;53.590;10.054;2022-10-16T10:50:30;100900.91;;;18.17;88.47
48824;BME280;34640;53.590;10.054;2022-10-16T10:53:18;100910.50;;;18.15;88.00
48824;BME280;34640;53.590;10.054;2022-10-16T10:56:05;100919.13;;;18.09;87.69
48824;BME280;34640;53.590;10.054;2022-10-16T10:59:08;100913.19;;;18.16;86.08
48824;BME280;34640;53.590;10.054;2022-10-16T11:01:55;100914.69;;;18.08;85.84
48824;BME280;34640;53.590;10.054;2022-10-16T11:04:48;100890.78;;;18.02;83.54
48824;BME280;34640;53.590;10.054;2022-10-16T11:07:26;100920.81;;;18.07;83.43
48824;BME280;34640;53.590;10.054;2022-10-16T11:10:08;100909.44;;;18.08;83.80
48824;BME280;34640;53.590;10.054;2022-10-16T11:12:49;100922.06;;;18.20;81.67
48824;BME280;34640;53.590;10.054;2022-10-16T11:15:28;100902.78;;;18.21;82.31
48824;BME280;34640;53.590;10.054;2022-10-16T11:18:06;100916.56;;;18.12;82.40
48824;BME280;34640;53.590;10.054;2022-10-16T11:20:44;100911.53;;;18.20;82.25
48824;BME280;34640;53.590;10.054;2022-10-16T11:23:24;100920.69;;;18.31;81.48
48824;BME280;34640;53.590;10.054;2022-10-16T11:26:05;100931.78;;;18.21;80.90
48824;BME280;34640;53.590;10.054;2022-10-16T11:28:45;100925.59;;;18.20;81.32
48824;BME280;34640;53.590;10.054;2022-10-16T11:31:24;100942.94;;;18.12;81.30
48824;BME280;34640;53.590;10.054;2022-10-16T11:34:09;100934.53;;;18.24;82.94
48824;BME280;34640;53.590;10.054;2022-10-16T11:36:53;100941.97;;;18.37;77.28
48824;BME280;34640;53.590;10.054;2022-10-16T11:39:30;100952.09;;;18.23;78.62
48824;BME280;34640;53.590;10.054;2022-10-16T11:42:11;100954.03;;;18.29;79.08
48824;BME280;34640;53.590;10.054;2022-10-16T11:44:53;100953.13;;;18.28;78.29
48824;BME280;34640;53.590;10.054;2022-10-16T11:47:34;100967.13;;;18.26;77.98
48824;BME280;34640;53.590;10.054;2022-10-16T11:50:34;100962.03;;;18.32;78.44
48824;BME280;34640;53.590;10.054;2022-10-16T11:53:14;100968.91;;;18.27;78.18
48824;BME280;34640;53.590;10.054;2022-10-16T11:55:50;100973.19;;;18.23;79.89
48824;BME280;34640;53.590;10.054;2022-10-16T11:58:28;100964.53;;;18.27;79.79
48824;BME280;34640;53.590;10.054;2022-10-16T12:01:16;100969.03;;;18.31;78.94
48824;BME280;34640;53.590;10.054;2022-10-16T12:04:04;100985.50;;;18.51;79.99
48824;BME280;34640;53.590;10.054;2022-10-16T12:06:44;100983.75;;;18.52;78.86
48824;BME280;34640;53.590;10.054;2022-10-16T12:09:22;100981.47;;;18.36;77.54
48824;BME280;34640;53.590;10.054;2022-10-16T12:11:59;100985.19;;;18.42;77.26
48824;BME280;34640;53.590;10.054;2022-10-16T12:14:39;100993.66;;;18.32;78.17
48824;BME280;34640;53.590;10.054;2022-10-16T12:17:36;101001.69;;;18.08;78.58
48824;BME280;34640;53.590;10.054;2022-10-16T12:20:25;101009.69;;;18.11;77.72
48824;BME280;34640;53.590;10.054;2022-10-16T12:23:00;101010.53;;;18.10;77.12
48824;BME280;34640;53.590;10.054;2022-10-16T12:25:36;101012.69;;;17.96;76.83
48824;BME280;34640;53.590;10.054;2022-10-16T12:28:20;101014.94;;;17.84;78.16
48824;BME280;34640;53.590;10.054;2022-10-16T12:30:58;101016.03;;;17.67;79.15
48824;BME280;34640;53.590;10.054;2022-10-16T12:33:33;101018.56;;;17.64;79.47
48824;BME280;34640;53.590;10.054;2022-10-16T12:36:13;101018.56;;;17.88;78.27
48824;BME280;34640;53.590;10.054;2022-10-16T12:38:52;101018.38;;;18.09;76.72
48824;BME280;34640;53.590;10.054;2022-10-16T12:41:28;101015.72;;;18.34;75.23
48824;BME280;34640;53.590;10.054;2022-10-16T12:44:02;101021.72;;;18.57;71.66
48824;BME280;34640;53.590;10.054;2022-10-16T12:46:39;101031.81;;;18.69;71.61
48824;BME280;34640;53.590;10.054;2022-10-16T12:49:23;101040.34;;;18.88;71.54
48824;BME280;34640;53.590;10.054;2022-10-16T12:52:03;101042.25;;;18.94;71.86
48824;BME280;34640;53.590;10.054;2022-10-16T12:54:38;101043.47;;;19.05;68.75
48824;BME280;34640;53.590;10.054;2022-10-16T12:57:31;101044.00;;;18.93;65.38
48824;BME280;34640;53.590;10.054;2022-10-16T13:00:18;101047.22;;;18.85;66.25
48824;BME280;34640;53.590;10.054;2022-10-16T13:03:20;101046.38;;;18.86;66.06
48824;BME280;34640;53.590;10.054;2022-10-16T13:06:07;101046.03;;;18.74;66.66
48824;BME280;34640;53.590;10.054;2022-10-16T13:08:57;101053.41;;;18.85;67.42
48824;BME280;34640;53.590;10.054;2022-10-16T13:11:47;101053.31;;;18.82;64.53
48824;BME280;34640;53.590;10.054;2022-10-16T13:14:45;101056.63;;;18.75;65.49
48824;BME280;34640;53.590;10.054;2022-10-16T13:17:30;101056.41;;;18.68;66.41
48824;BME280;34640;53.590;10.054;2022-10-16T13:20:20;101057.44;;;18.73;65.54
48824;BME280;34640;53.590;10.054;2022-10-16T13:23:02;101068.13;;;18.77;65.11
48824;BME280;34640;53.590;10.054;2022-10-16T13:25:49;101071.66;;;18.78;64.67
48824;BME280;34640;53.590;10.054;2022-10-16T13:28:28;101073.97;;;18.67;65.66
48824;BME280;34640;53.590;10.054;2022-10-16T13:31:04;101084.56;;;18.69;65.52